createdAt,value
2017-08-23T00:01:41.211Z,10.80
2017-08-23T00:04:10.136Z,10.70
2017-08-23T00:06:39.027Z,10.70
2017-08-23T00:09:08.093Z,10.60
2017-08-23T00:11:37.008Z,10.60
2017-08-23T00:14:05.907Z,10.50
2017-08-23T00:16:35.550Z,10.40
2017-08-23T00:19:04.467Z,10.40
2017-08-23T00:21:33.398Z,10.40
2017-08-23T00:24:02.289Z,10.40
2017-08-23T00:26:31.263Z,10.40
2017-08-23T00:29:00.223Z,10.40
2017-08-23T00:31:29.131Z,10.30
2017-08-23T00:33:58.047Z,10.30
2017-08-23T00:36:26.957Z,10.20
2017-08-23T00:38:55.866Z,10.20
2017-08-23T00:41:24.755Z,10.20
2017-08-23T00:43:53.803Z,10.20
2017-08-23T00:46:23.130Z,10.10
2017-08-23T00:48:52.098Z,10.10
2017-08-23T00:51:21.793Z,10.00
2017-08-23T00:53:51.749Z,10.10
2017-08-23T00:56:20.990Z,10.00
2017-08-23T00:58:49.904Z,10.00
2017-08-23T01:01:18.832Z,9.90
2017-08-23T01:03:47.735Z,9.90
2017-08-23T01:06:16.636Z,9.90
2017-08-23T01:08:45.543Z,9.90
2017-08-23T01:11:14.479Z,9.80
2017-08-23T01:13:43.603Z,9.90
2017-08-23T01:16:12.726Z,9.90
2017-08-23T01:18:42.133Z,9.80
2017-08-23T01:21:11.023Z,9.80
2017-08-23T01:23:40.667Z,9.80
2017-08-23T01:26:09.571Z,9.70
2017-08-23T01:28:38.455Z,9.80
2017-08-23T01:31:07.381Z,9.70
2017-08-23T01:33:36.526Z,9.70
2017-08-23T01:36:05.422Z,9.60
2017-08-23T01:38:34.567Z,9.60
2017-08-23T01:41:03.453Z,9.50
2017-08-23T01:43:32.351Z,9.50
2017-08-23T01:46:01.778Z,9.50
2017-08-23T01:48:30.705Z,9.40
2017-08-23T01:51:00.043Z,9.40
2017-08-23T01:53:28.903Z,9.50
2017-08-23T01:55:57.905Z,9.40
2017-08-23T01:58:27.085Z,9.40
2017-08-23T02:00:56.089Z,9.40
2017-08-23T02:03:25.485Z,9.40
2017-08-23T02:05:54.806Z,9.30
2017-08-23T02:11:16.687Z,9.30
2017-08-23T02:13:45.780Z,9.40
2017-08-23T02:16:15.045Z,9.40
2017-08-23T02:18:43.961Z,9.30
2017-08-23T02:21:12.891Z,9.20
2017-08-23T02:23:41.817Z,9.20
2017-08-23T02:26:11.063Z,9.10
2017-08-23T02:28:39.935Z,9.20
2017-08-23T02:31:08.821Z,9.20
2017-08-23T02:33:37.747Z,9.10
2017-08-23T02:36:06.612Z,9.20
2017-08-23T02:38:35.469Z,9.20
2017-08-23T02:41:04.326Z,9.10
2017-08-23T02:43:33.204Z,9.00
2017-08-23T02:46:02.882Z,9.00
2017-08-23T02:48:31.775Z,8.90
2017-08-23T02:51:00.636Z,9.00
2017-08-23T02:53:29.529Z,9.00
2017-08-23T02:55:58.844Z,9.00
2017-08-23T02:59:46.831Z,9.10
2017-08-23T03:02:15.705Z,9.10
2017-08-23T03:04:44.570Z,9.00
2017-08-23T03:07:13.469Z,8.80
2017-08-23T03:09:42.394Z,8.80
2017-08-23T03:12:12.380Z,8.60
2017-08-23T03:14:41.275Z,8.60
2017-08-23T03:17:10.246Z,8.70
2017-08-23T03:19:39.152Z,8.70
2017-08-23T03:22:08.846Z,8.70
2017-08-23T03:24:37.767Z,8.70
2017-08-23T03:27:06.692Z,8.70
2017-08-23T03:29:35.801Z,8.70
2017-08-23T03:32:04.734Z,8.70
2017-08-23T03:34:33.601Z,8.70
2017-08-23T03:37:02.727Z,8.70
2017-08-23T03:39:31.634Z,8.70
2017-08-23T03:42:00.521Z,8.70
2017-08-23T03:44:29.386Z,8.70
2017-08-23T03:46:58.323Z,8.60
2017-08-23T03:49:27.206Z,8.60
2017-08-23T03:51:56.120Z,8.60
2017-08-23T03:54:24.997Z,8.60
2017-08-23T03:56:54.259Z,8.60
2017-08-23T03:59:23.252Z,8.60
2017-08-23T04:01:52.243Z,8.60
2017-08-23T04:04:21.183Z,8.60
2017-08-23T04:06:50.103Z,8.60
2017-08-23T04:09:18.974Z,8.60
2017-08-23T04:11:47.880Z,8.50
2017-08-23T04:14:16.753Z,8.50
2017-08-23T04:16:46.521Z,8.50
2017-08-23T04:19:16.150Z,8.50
2017-08-23T04:21:45.775Z,8.40
2017-08-23T04:24:14.662Z,8.40
2017-08-23T04:26:43.627Z,8.40
2017-08-23T04:29:13.286Z,8.40
2017-08-23T04:31:42.191Z,8.30
2017-08-23T04:34:11.049Z,8.40
2017-08-23T04:36:39.929Z,8.40
2017-08-23T04:39:08.836Z,8.40
2017-08-23T04:41:37.724Z,8.50
2017-08-23T04:44:06.620Z,8.50
2017-08-23T04:46:35.533Z,8.60
2017-08-23T04:49:04.436Z,8.60
2017-08-23T04:51:33.360Z,8.60
2017-08-23T04:54:02.240Z,8.70
2017-08-23T04:56:31.167Z,8.80
2017-08-23T04:59:01.148Z,8.70
2017-08-23T05:01:30.020Z,8.70
2017-08-23T05:03:58.978Z,8.90
2017-08-23T05:06:27.902Z,9.00
2017-08-23T05:08:56.830Z,9.00
2017-08-23T05:11:25.700Z,9.10
2017-08-23T05:13:55.389Z,9.40
2017-08-23T05:16:24.309Z,9.30
2017-08-23T05:18:53.235Z,9.40
2017-08-23T05:21:22.182Z,9.60
2017-08-23T05:23:51.831Z,10.00
2017-08-23T05:26:20.732Z,9.90
2017-08-23T05:28:52.070Z,10.20
2017-08-23T05:31:21.158Z,10.30
2017-08-23T05:33:50.202Z,10.50
2017-08-23T05:36:19.115Z,10.80
2017-08-23T05:38:48.041Z,11.00
2017-08-23T05:41:16.966Z,11.30
2017-08-23T05:43:45.884Z,11.30
2017-08-23T05:46:15.681Z,11.70
2017-08-23T05:48:44.572Z,11.70
2017-08-23T05:51:14.330Z,12.00
2017-08-23T05:53:43.254Z,11.90
2017-08-23T05:56:12.379Z,12.20
2017-08-23T05:58:41.346Z,12.30
2017-08-23T06:01:10.302Z,12.60
2017-08-23T06:03:39.235Z,13.00
2017-08-23T06:06:08.254Z,13.10
2017-08-23T06:08:37.186Z,13.10
2017-08-23T06:11:06.120Z,12.90
2017-08-23T06:13:35.034Z,13.10
2017-08-23T06:16:04.017Z,13.40
2017-08-23T06:18:33.798Z,13.80
2017-08-23T06:21:03.478Z,13.80
2017-08-23T06:23:33.179Z,14.30
2017-08-23T06:26:02.100Z,14.30
2017-08-23T06:28:31.089Z,14.40
2017-08-23T06:32:19.374Z,14.50
2017-08-23T06:34:49.043Z,15.20
2017-08-23T06:37:17.947Z,15.10
2017-08-23T06:39:48.892Z,15.60
2017-08-23T06:42:17.840Z,15.50
2017-08-23T06:44:46.838Z,15.80
2017-08-23T06:47:15.773Z,15.60
2017-08-23T06:49:44.665Z,15.70
2017-08-23T06:52:13.538Z,15.90
2017-08-23T06:54:42.452Z,16.30
2017-08-23T06:57:11.433Z,16.50
2017-08-23T06:59:40.375Z,16.10
2017-08-23T07:02:09.615Z,16.10
2017-08-23T07:04:38.521Z,16.20
2017-08-23T07:07:08.202Z,17.30
2017-08-23T07:09:37.156Z,17.20
2017-08-23T07:12:06.076Z,17.30
2017-08-23T07:14:38.552Z,17.40
2017-08-23T07:17:07.511Z,17.40
2017-08-23T07:19:37.207Z,17.10
2017-08-23T07:22:06.897Z,17.20
2017-08-23T07:24:36.553Z,17.60
2017-08-23T07:27:05.630Z,17.60
2017-08-23T07:29:35.642Z,18.40
2017-08-23T07:32:04.690Z,18.30
2017-08-23T07:34:33.795Z,18.50
2017-08-23T07:37:03.540Z,17.70
2017-08-23T07:39:33.410Z,18.10
2017-08-23T07:42:02.530Z,18.00
2017-08-23T07:44:34.421Z,18.00
2017-08-23T07:47:03.504Z,18.00
2017-08-23T07:49:33.983Z,18.70
2017-08-23T07:52:03.146Z,18.60
2017-08-23T07:54:32.163Z,19.20
2017-08-23T07:57:01.080Z,19.60
2017-08-23T07:59:30.021Z,19.60
2017-08-23T08:01:59.888Z,19.80
2017-08-23T08:04:28.786Z,19.80
2017-08-23T08:06:57.705Z,20.50
2017-08-23T08:09:31.567Z,20.90
2017-08-23T08:12:01.218Z,20.80
2017-08-23T08:14:30.875Z,21.00
2017-08-23T08:16:59.890Z,20.90
2017-08-23T08:19:29.554Z,21.00
2017-08-23T08:21:58.460Z,20.90
2017-08-23T08:24:27.323Z,21.80
2017-08-23T08:26:57.056Z,21.60
2017-08-23T08:29:26.879Z,22.50
2017-08-23T08:31:55.820Z,22.40
2017-08-23T08:34:24.755Z,22.80
2017-08-23T08:36:53.696Z,23.10
2017-08-23T08:39:22.667Z,23.50
2017-08-23T08:41:51.609Z,23.00
2017-08-23T08:44:20.493Z,23.80
2017-08-23T08:46:49.422Z,23.60
2017-08-23T08:49:18.393Z,24.30
2017-08-23T08:51:47.251Z,24.40
2017-08-23T08:54:16.207Z,24.80
2017-08-23T08:56:45.239Z,25.10
2017-08-23T08:59:14.901Z,24.50
2017-08-23T09:01:43.786Z,24.40
2017-08-23T09:04:12.802Z,25.50
2017-08-23T09:06:41.713Z,26.10
2017-08-23T09:09:11.374Z,25.50
2017-08-23T09:11:40.419Z,25.50
2017-08-23T09:14:09.411Z,25.40
2017-08-23T09:16:39.067Z,25.30
2017-08-23T09:19:08.086Z,25.30
2017-08-23T09:21:37.062Z,25.90
2017-08-23T09:24:06.033Z,26.90
2017-08-23T09:26:35.773Z,26.60
2017-08-23T09:29:04.690Z,26.50
2017-08-23T09:31:33.574Z,26.20
2017-08-23T09:34:03.302Z,26.30
2017-08-23T09:36:32.955Z,25.90
2017-08-23T09:39:01.867Z,25.90
2017-08-23T09:41:31.566Z,26.70
2017-08-23T09:44:00.411Z,26.60
2017-08-23T09:46:30.096Z,28.40
2017-08-23T09:48:59.033Z,28.30
2017-08-23T09:51:28.007Z,27.40
2017-08-23T09:53:57.778Z,28.40
2017-08-23T09:56:26.803Z,28.30
2017-08-23T09:58:56.603Z,28.10
2017-08-23T10:01:25.599Z,28.00
2017-08-23T10:03:55.332Z,27.80
2017-08-23T10:06:24.292Z,27.70
2017-08-23T10:08:53.287Z,29.00
2017-08-23T10:11:22.495Z,30.00
2017-08-23T10:13:52.177Z,28.10
2017-08-23T10:16:21.153Z,28.10
2017-08-23T10:18:50.822Z,28.30
2017-08-23T10:21:20.547Z,28.30
2017-08-23T10:23:49.438Z,28.30
2017-08-23T10:26:18.299Z,28.60
2017-08-23T10:28:47.959Z,28.70
2017-08-23T10:31:17.626Z,28.10
2017-08-23T10:33:46.575Z,28.10
2017-08-23T10:36:15.726Z,27.90
2017-08-23T10:38:44.708Z,27.40
2017-08-23T10:41:13.699Z,27.80
2017-08-23T10:43:43.407Z,27.60
2017-08-23T10:46:12.421Z,27.50
2017-08-23T10:48:41.430Z,27.00
2017-08-23T10:51:10.482Z,27.00
2017-08-23T10:53:40.153Z,29.30
2017-08-23T10:56:11.368Z,29.20
2017-08-23T10:58:41.339Z,28.50
2017-08-23T11:01:10.267Z,28.10
2017-08-23T11:03:39.181Z,28.40
2017-08-23T11:06:08.303Z,29.20
2017-08-23T11:08:37.419Z,30.10
2017-08-23T11:11:06.627Z,29.60
2017-08-23T11:13:36.503Z,30.40
2017-08-23T11:16:05.612Z,30.30
2017-08-23T11:18:34.517Z,30.20
2017-08-23T11:21:04.219Z,28.70
2017-08-23T11:23:38.798Z,28.60
2017-08-23T11:26:07.836Z,28.20
2017-08-23T11:31:12.131Z,27.20
2017-08-23T11:33:41.093Z,27.20
2017-08-23T11:36:10.135Z,26.10
2017-08-23T11:38:39.092Z,26.50
2017-08-23T11:41:08.032Z,27.00
2017-08-23T11:43:37.757Z,27.90
2017-08-23T11:46:07.615Z,27.50
2017-08-23T11:48:36.545Z,27.40
2017-08-23T11:51:05.519Z,26.60
2017-08-23T11:53:34.425Z,25.60
2017-08-23T11:56:04.160Z,25.60
2017-08-23T11:58:33.811Z,25.90
2017-08-23T12:01:02.786Z,25.80
2017-08-23T12:03:31.704Z,26.10
2017-08-23T12:06:00.588Z,26.50
2017-08-23T12:08:29.483Z,26.70
2017-08-23T12:10:58.450Z,26.80
2017-08-23T12:13:27.387Z,25.80
2017-08-23T12:15:56.356Z,25.40
2017-08-23T12:19:27.946Z,25.00
2017-08-23T12:22:11.346Z,25.20
2017-08-23T12:24:40.317Z,24.70
2017-08-23T12:27:09.277Z,24.80
2017-08-23T12:29:38.960Z,25.70
2017-08-23T12:32:07.958Z,25.60
2017-08-23T12:34:36.858Z,25.70
2017-08-23T12:37:05.822Z,25.10
2017-08-23T12:39:35.497Z,24.70
2017-08-23T12:42:04.432Z,24.60
2017-08-23T12:44:33.382Z,24.90
2017-08-23T12:47:03.059Z,24.90
2017-08-23T12:49:32.008Z,24.90
2017-08-23T12:52:07.504Z,25.30
2017-08-23T12:54:36.442Z,25.60
2017-08-23T12:57:06.251Z,25.90
2017-08-23T12:59:35.276Z,25.90
2017-08-23T13:02:04.283Z,26.50
2017-08-23T13:04:34.000Z,27.40
2017-08-23T13:07:02.930Z,27.40
2017-08-23T13:09:31.835Z,27.60
2017-08-23T13:12:00.789Z,27.00
2017-08-23T13:14:30.153Z,26.20
2017-08-23T13:16:59.176Z,26.00
2017-08-23T13:19:28.899Z,25.80
2017-08-23T13:21:58.873Z,25.70
2017-08-23T13:24:28.581Z,25.60
2017-08-23T13:26:57.759Z,25.60
2017-08-23T13:29:26.764Z,25.70
2017-08-23T13:31:55.998Z,25.80
2017-08-23T13:34:25.696Z,25.30
2017-08-23T13:36:55.076Z,25.30
2017-08-23T13:39:24.056Z,24.60
2017-08-23T13:41:52.985Z,24.40
2017-08-23T13:44:22.991Z,24.20
2017-08-23T13:46:52.001Z,24.20
2017-08-23T13:49:20.994Z,24.20
2017-08-23T13:51:49.921Z,23.90
2017-08-23T13:54:18.928Z,23.80
2017-08-23T13:56:47.872Z,23.50
2017-08-23T13:59:17.802Z,24.00
2017-08-23T14:01:47.629Z,24.10
2017-08-23T14:04:16.687Z,24.10
2017-08-23T14:06:53.127Z,23.90
2017-08-23T14:09:25.870Z,23.90
2017-08-23T14:11:54.822Z,23.80
2017-08-23T14:14:24.532Z,23.60
2017-08-23T14:16:53.512Z,23.60
2017-08-23T14:19:22.459Z,23.30
2017-08-23T14:21:51.352Z,23.50
2017-08-23T14:24:20.322Z,23.50
2017-08-23T14:26:51.949Z,23.30
2017-08-23T14:29:20.897Z,23.30
2017-08-23T14:31:49.817Z,23.30
2017-08-23T14:34:18.834Z,23.50
2017-08-23T14:36:47.909Z,23.50
2017-08-23T14:39:16.889Z,23.30
2017-08-23T14:41:45.904Z,23.40
2017-08-23T14:44:14.822Z,23.50
2017-08-23T14:46:44.615Z,23.40
2017-08-23T14:49:13.591Z,23.40
2017-08-23T14:51:43.225Z,23.80
2017-08-23T14:54:12.273Z,23.70
2017-08-23T14:56:41.243Z,23.80
2017-08-23T14:59:10.203Z,23.50
2017-08-23T15:01:39.994Z,23.40
2017-08-23T15:04:09.316Z,23.40
2017-08-23T15:06:39.142Z,23.70
2017-08-23T15:09:09.132Z,23.60
2017-08-23T15:11:38.939Z,23.50
2017-08-23T15:14:07.963Z,23.40
2017-08-23T15:16:37.048Z,23.20
2017-08-23T15:19:06.890Z,23.20
2017-08-23T15:21:35.812Z,23.20
2017-08-23T15:24:04.779Z,23.00
2017-08-23T15:26:33.702Z,23.00
2017-08-23T15:29:02.602Z,22.70
2017-08-23T15:31:31.546Z,22.70
2017-08-23T15:34:00.472Z,22.60
2017-08-23T15:36:29.456Z,22.50
2017-08-23T15:38:58.452Z,22.50
2017-08-23T15:41:27.467Z,22.40
2017-08-23T15:43:57.227Z,22.40
2017-08-23T15:46:26.209Z,22.40
2017-08-23T15:48:55.160Z,22.50
2017-08-23T15:51:24.041Z,22.50
2017-08-23T15:53:52.928Z,22.50
2017-08-23T15:56:22.602Z,22.60
2017-08-23T15:58:51.551Z,22.50
2017-08-23T16:01:20.454Z,22.50
2017-08-23T16:03:50.280Z,22.60
2017-08-23T16:06:19.937Z,22.50
2017-08-23T16:08:49.029Z,22.50
2017-08-23T16:11:18.027Z,22.60
2017-08-23T16:13:47.218Z,22.40
2017-08-23T16:16:16.207Z,22.40
2017-08-23T16:18:45.117Z,22.40
2017-08-23T16:21:14.077Z,22.40
2017-08-23T16:23:43.082Z,22.40
2017-08-23T16:26:12.015Z,22.30
2017-08-23T16:28:40.918Z,22.30
2017-08-23T16:31:10.590Z,22.20
2017-08-23T16:33:39.540Z,22.10
2017-08-23T16:36:08.539Z,22.20
2017-08-23T16:38:37.485Z,22.20
2017-08-23T16:41:07.258Z,22.10
2017-08-23T16:43:36.154Z,22.10
2017-08-23T16:46:05.063Z,22.00
2017-08-23T16:48:35.884Z,21.90
2017-08-23T16:51:05.764Z,21.70
2017-08-23T16:53:34.728Z,21.60
2017-08-23T16:56:04.474Z,21.50
2017-08-23T16:58:33.388Z,21.50
2017-08-23T17:01:03.297Z,21.50
2017-08-23T17:03:32.219Z,21.40
2017-08-23T17:06:01.166Z,21.50
2017-08-23T17:08:30.099Z,21.50
2017-08-23T17:10:59.012Z,21.60
2017-08-23T17:13:27.979Z,21.70
2017-08-23T17:15:56.990Z,21.70
2017-08-23T17:18:25.915Z,21.60
2017-08-23T17:20:54.834Z,21.60
2017-08-23T17:23:23.760Z,21.50
2017-08-23T17:25:52.724Z,21.50
2017-08-23T17:28:21.697Z,21.50
2017-08-23T17:30:50.686Z,21.50
2017-08-23T17:33:19.928Z,21.40
2017-08-23T17:35:48.935Z,21.40
2017-08-23T17:38:17.901Z,21.30
2017-08-23T17:40:46.951Z,21.30
2017-08-23T17:43:16.681Z,21.00
2017-08-23T17:45:45.647Z,20.90
2017-08-23T17:48:15.702Z,20.70
2017-08-23T17:50:44.559Z,20.70
2017-08-23T17:53:13.482Z,20.50
2017-08-23T17:55:43.167Z,20.20
2017-08-23T17:58:12.064Z,20.10
2017-08-23T18:00:40.981Z,20.00
2017-08-23T18:03:10.087Z,19.90
2017-08-23T18:05:39.059Z,19.80
2017-08-23T18:08:07.970Z,19.60
2017-08-23T18:10:36.862Z,19.50
2017-08-23T18:13:05.761Z,19.50
2017-08-23T18:15:34.695Z,19.50
2017-08-23T18:18:03.604Z,19.30
2017-08-23T18:20:32.546Z,19.10
2017-08-23T18:23:01.447Z,19.00
2017-08-23T18:26:50.535Z,18.90
2017-08-23T18:29:20.230Z,18.70
2017-08-23T18:31:49.947Z,18.70
2017-08-23T18:34:19.711Z,18.60
2017-08-23T18:36:48.690Z,18.60
2017-08-23T18:39:18.366Z,18.40
2017-08-23T18:41:48.068Z,18.40
2017-08-23T18:44:17.766Z,18.40
2017-08-23T18:46:46.687Z,18.30
2017-08-23T18:49:15.639Z,18.40
2017-08-23T18:51:46.036Z,18.30
2017-08-23T18:54:15.760Z,18.20
2017-08-23T18:56:44.706Z,18.20
2017-08-23T18:59:13.920Z,18.20
2017-08-23T19:01:42.854Z,18.20
2017-08-23T19:04:11.826Z,18.10
2017-08-23T19:06:40.784Z,18.00
2017-08-23T19:09:09.740Z,18.00
2017-08-23T19:11:38.731Z,18.00
2017-08-23T19:14:07.627Z,17.90
2017-08-23T19:16:36.558Z,17.80
2017-08-23T19:19:05.738Z,17.80
2017-08-23T19:21:35.063Z,17.80
2017-08-23T19:24:03.989Z,17.80
2017-08-23T19:26:32.969Z,17.80
2017-08-23T19:29:01.901Z,17.80
2017-08-23T19:31:30.882Z,17.80
2017-08-23T19:33:59.841Z,17.90
2017-08-23T19:36:28.796Z,17.90
2017-08-23T19:38:57.761Z,18.00
2017-08-23T19:41:27.503Z,18.10
2017-08-23T19:43:56.484Z,18.00
2017-08-23T19:46:25.411Z,18.10
2017-08-23T19:48:54.370Z,18.20
2017-08-23T19:51:23.338Z,18.30
2017-08-23T19:53:52.998Z,18.40
2017-08-23T19:56:36.516Z,18.30
2017-08-23T19:59:05.439Z,18.40
2017-08-23T20:01:34.399Z,18.40
2017-08-23T20:04:03.314Z,18.40
2017-08-23T20:06:32.349Z,18.40
2017-08-23T20:09:01.255Z,18.40
2017-08-23T20:11:30.938Z,18.40
2017-08-23T20:13:59.876Z,18.30
2017-08-23T20:16:28.956Z,18.30
2017-08-23T20:18:58.701Z,18.20
2017-08-23T20:21:28.380Z,18.20
2017-08-23T20:23:59.888Z,18.20
2017-08-23T20:26:28.839Z,18.20
2017-08-23T20:28:57.851Z,18.30
2017-08-23T20:31:26.773Z,18.30
2017-08-23T20:33:55.688Z,18.30
2017-08-23T20:36:25.389Z,18.20
2017-08-23T20:38:55.062Z,18.30
2017-08-23T20:41:24.086Z,18.30
2017-08-23T20:43:53.865Z,18.30
2017-08-23T20:46:22.965Z,18.30
2017-08-23T20:48:52.098Z,18.40
2017-08-23T20:51:21.042Z,18.40
2017-08-23T20:53:49.997Z,18.30
2017-08-23T20:56:18.906Z,18.30
2017-08-23T20:58:48.431Z,18.40
2017-08-23T21:01:19.307Z,18.40
2017-08-23T21:03:49.358Z,18.30
2017-08-23T21:06:19.296Z,18.30
2017-08-23T21:08:48.283Z,18.30
2017-08-23T21:11:17.238Z,18.30
2017-08-23T21:13:46.133Z,18.30
2017-08-23T21:16:15.048Z,18.30
2017-08-23T21:18:43.943Z,18.20
2017-08-23T21:21:12.814Z,18.30
2017-08-23T21:23:41.779Z,18.20
2017-08-23T21:26:11.443Z,18.20
2017-08-23T21:28:40.692Z,18.20
2017-08-23T21:31:10.616Z,18.10
2017-08-23T21:33:40.339Z,18.00
2017-08-23T21:36:09.314Z,18.00
2017-08-23T21:38:58.512Z,18.00
2017-08-23T21:41:29.665Z,18.00
2017-08-23T21:43:58.794Z,18.00
2017-08-23T21:46:27.659Z,18.00
2017-08-23T21:48:56.553Z,18.00
2017-08-23T21:51:25.436Z,18.00
2017-08-23T21:53:54.306Z,18.00
2017-08-23T21:56:23.163Z,17.90
2017-08-23T21:58:52.892Z,17.80
2017-08-23T22:01:21.807Z,17.80
2017-08-23T22:03:50.665Z,17.80
2017-08-23T22:06:20.383Z,17.80
2017-08-23T22:08:49.245Z,17.70
2017-08-23T22:11:18.111Z,17.70
2017-08-23T22:13:47.748Z,17.70
2017-08-23T22:16:17.445Z,17.60
2017-08-23T22:18:47.487Z,17.60
2017-08-23T22:21:16.373Z,17.60
2017-08-23T22:23:46.057Z,17.50
2017-08-23T22:26:14.914Z,17.40
2017-08-23T22:28:43.767Z,17.50
2017-08-23T22:31:13.042Z,17.50
2017-08-23T22:33:41.956Z,17.50
2017-08-23T22:36:10.833Z,17.50
2017-08-23T22:38:39.755Z,17.50
2017-08-23T22:41:08.616Z,17.50
2017-08-23T22:43:38.243Z,17.50
2017-08-23T22:46:07.886Z,17.50
2017-08-23T22:48:36.831Z,17.50
2017-08-23T22:51:06.507Z,17.60
2017-08-23T22:53:35.382Z,17.50
2017-08-23T22:56:04.338Z,17.60
2017-08-23T22:58:33.258Z,17.70
2017-08-23T23:01:02.477Z,17.70
2017-08-23T23:03:31.366Z,17.80
2017-08-23T23:06:00.277Z,17.80
2017-08-23T23:08:29.146Z,17.80
2017-08-23T23:10:58.042Z,17.80
2017-08-23T23:13:26.913Z,17.70
2017-08-23T23:15:55.836Z,17.60
2017-08-23T23:18:25.455Z,17.50
2017-08-23T23:20:54.327Z,17.40
2017-08-23T23:23:23.213Z,17.50
2017-08-23T23:25:52.123Z,17.40
2017-08-23T23:28:21.439Z,17.40
2017-08-23T23:30:51.355Z,17.50
2017-08-23T23:33:20.688Z,17.40
2017-08-23T23:35:49.563Z,17.50
2017-08-23T23:38:18.485Z,17.50
2017-08-23T23:40:47.484Z,17.40
2017-08-23T23:43:16.642Z,17.40
2017-08-23T23:45:45.711Z,17.30
2017-08-23T23:48:14.966Z,17.30
2017-08-23T23:50:44.098Z,17.30
2017-08-23T23:53:13.420Z,17.30
2017-08-23T23:55:42.345Z,17.30
2017-08-23T23:58:11.264Z,17.30
